sensor_id;sensor_type;location;lat;lon;timestamp;temperature;humidity
68485;DHT22;55472;50.060;21.960;2024-01-07T00:01:10;-0.70;99.90
68485;DHT22;55472;50.060;21.960;2024-01-07T00:03:57;-0.80;99.90
68485;DHT22;55472;50.060;21.960;2024-01-07T00:06:23;-0.90;99.90
68485;DHT22;55472;50.060;21.960;2024-01-07T00:08:49;-0.90;99.90
68485;DHT22;55472;50.060;21.960;2024-01-07T00:11:15;-0.80;99.90
68485;DHT22;55472;50.060;21.960;2024-01-07T00:13:41;-0.80;99.90
68485;DHT22;55472;50.060;21.960;2024-01-07T00:16:07;-0.80;99.90
68485;DHT22;55472;50.060;21.960;2024-01-07T00:18:34;-0.80;99.90
68485;DHT22;55472;50.060;21.960;2024-01-07T00:21:00;-0.80;99.90
68485;DHT22;55472;50.060;21.960;2024-01-07T00:23:26;-0.80;99.90
68485;DHT22;55472;50.060;21.960;2024-01-07T00:25:52;-0.90;99.90
68485;DHT22;55472;50.060;21.960;2024-01-07T00:28:18;-1.00;99.90
68485;DHT22;55472;50.060;21.960;2024-01-07T00:30:44;-1.00;99.90
68485;DHT22;55472;50.060;21.960;2024-01-07T00:33:11;-1.10;99.90
68485;DHT22;55472;50.060;21.960;2024-01-07T00:35:37;-1.10;99.90
68485;DHT22;55472;50.060;21.960;2024-01-07T00:38:03;-1.10;99.90
68485;DHT22;55472;50.060;21.960;2024-01-07T00:40:29;-1.10;99.90
68485;DHT22;55472;50.060;21.960;2024-01-07T00:42:56;-1.10;99.90
68485;DHT22;55472;50.060;21.960;2024-01-07T00:45:22;-1.10;99.90
68485;DHT22;55472;50.060;21.960;2024-01-07T00:47:48;-1.20;99.90
68485;DHT22;55472;50.060;21.960;2024-01-07T00:50:14;-1.10;99.90
68485;DHT22;55472;50.060;21.960;2024-01-07T00:52:40;-1.20;99.90
68485;DHT22;55472;50.060;21.960;2024-01-07T00:55:08;-1.20;99.90
68485;DHT22;55472;50.060;21.960;2024-01-07T00:57:35;-1.20;99.90
68485;DHT22;55472;50.060;21.960;2024-01-07T01:00:05;-1.20;99.90
68485;DHT22;55472;50.060;21.960;2024-01-07T01:02:32;-1.20;99.90
68485;DHT22;55472;50.060;21.960;2024-01-07T01:04:58;-1.20;99.90
68485;DHT22;55472;50.060;21.960;2024-01-07T01:07:24;-1.20;99.90
68485;DHT22;55472;50.060;21.960;2024-01-07T01:09:50;-1.20;99.90
68485;DHT22;55472;50.060;21.960;2024-01-07T01:12:17;-1.20;99.90
68485;DHT22;55472;50.060;21.960;2024-01-07T01:14:43;-1.30;99.90
68485;DHT22;55472;50.060;21.960;2024-01-07T01:17:09;-1.30;99.90
68485;DHT22;55472;50.060;21.960;2024-01-07T01:19:35;-1.30;99.90
68485;DHT22;55472;50.060;21.960;2024-01-07T01:22:01;-1.40;99.90
68485;DHT22;55472;50.060;21.960;2024-01-07T01:24:27;-1.40;99.90
68485;DHT22;55472;50.060;21.960;2024-01-07T01:26:53;-1.40;99.90
68485;DHT22;55472;50.060;21.960;2024-01-07T01:29:19;-1.40;99.90
68485;DHT22;55472;50.060;21.960;2024-01-07T01:31:46;-1.40;99.90
68485;DHT22;55472;50.060;21.960;2024-01-07T01:34:12;-1.40;99.90
68485;DHT22;55472;50.060;21.960;2024-01-07T01:36:38;-1.40;99.90
68485;DHT22;55472;50.060;21.960;2024-01-07T01:39:04;-1.40;99.90
68485;DHT22;55472;50.060;21.960;2024-01-07T01:41:30;-1.30;99.90
68485;DHT22;55472;50.060;21.960;2024-01-07T01:44:00;-1.40;99.90
68485;DHT22;55472;50.060;21.960;2024-01-07T01:46:29;-1.40;99.90
68485;DHT22;55472;50.060;21.960;2024-01-07T01:48:55;-1.40;99.90
68485;DHT22;55472;50.060;21.960;2024-01-07T01:51:23;-1.40;99.90
68485;DHT22;55472;50.060;21.960;2024-01-07T01:53:50;-1.40;99.90
68485;DHT22;55472;50.060;21.960;2024-01-07T01:56:18;-1.40;99.90
68485;DHT22;55472;50.060;21.960;2024-01-07T01:58:46;-1.50;99.90
68485;DHT22;55472;50.060;21.960;2024-01-07T02:01:13;-1.50;99.90
68485;DHT22;55472;50.060;21.960;2024-01-07T02:03:40;-1.50;99.90
68485;DHT22;55472;50.060;21.960;2024-01-07T02:06:07;-1.60;99.90
68485;DHT22;55472;50.060;21.960;2024-01-07T02:08:33;-1.60;99.90
68485;DHT22;55472;50.060;21.960;2024-01-07T02:11:22;-1.60;99.90
68485;DHT22;55472;50.060;21.960;2024-01-07T02:13:48;-1.60;99.90
68485;DHT22;55472;50.060;21.960;2024-01-07T02:16:15;-1.60;99.90
68485;DHT22;55472;50.060;21.960;2024-01-07T02:18:42;-1.60;99.90
68485;DHT22;55472;50.060;21.960;2024-01-07T02:21:11;-1.70;99.90
68485;DHT22;55472;50.060;21.960;2024-01-07T02:23:38;-1.70;99.90
68485;DHT22;55472;50.060;21.960;2024-01-07T02:26:04;-1.70;99.90
68485;DHT22;55472;50.060;21.960;2024-01-07T02:28:32;-1.70;99.90
68485;DHT22;55472;50.060;21.960;2024-01-07T02:30:59;-1.70;99.90
68485;DHT22;55472;50.060;21.960;2024-01-07T02:33:26;-1.70;99.90
68485;DHT22;55472;50.060;21.960;2024-01-07T02:35:52;-1.70;99.90
68485;DHT22;55472;50.060;21.960;2024-01-07T02:38:18;-1.80;99.90
68485;DHT22;55472;50.060;21.960;2024-01-07T02:40:44;-1.80;99.90
68485;DHT22;55472;50.060;21.960;2024-01-07T02:43:10;-1.80;99.90
68485;DHT22;55472;50.060;21.960;2024-01-07T02:45:37;-1.80;99.90
68485;DHT22;55472;50.060;21.960;2024-01-07T02:48:03;-1.80;99.90
68485;DHT22;55472;50.060;21.960;2024-01-07T02:50:29;-1.80;99.90
68485;DHT22;55472;50.060;21.960;2024-01-07T02:52:56;-1.90;99.90
68485;DHT22;55472;50.060;21.960;2024-01-07T02:55:22;-1.90;99.90
68485;DHT22;55472;50.060;21.960;2024-01-07T02:57:48;-1.90;99.90
68485;DHT22;55472;50.060;21.960;2024-01-07T03:00:14;-1.90;99.90
68485;DHT22;55472;50.060;21.960;2024-01-07T03:02:40;-1.90;99.90
68485;DHT22;55472;50.060;21.960;2024-01-07T03:05:07;-1.90;99.90
68485;DHT22;55472;50.060;21.960;2024-01-07T03:07:33;-1.90;99.90
68485;DHT22;55472;50.060;21.960;2024-01-07T03:10:00;-1.90;99.90
68485;DHT22;55472;50.060;21.960;2024-01-07T03:12:26;-1.90;99.90
68485;DHT22;55472;50.060;21.960;2024-01-07T03:14:52;-1.90;99.90
68485;DHT22;55472;50.060;21.960;2024-01-07T03:17:18;-1.90;99.90
68485;DHT22;55472;50.060;21.960;2024-01-07T03:19:44;-1.90;99.90
68485;DHT22;55472;50.060;21.960;2024-01-07T03:22:10;-2.00;99.90
68485;DHT22;55472;50.060;21.960;2024-01-07T03:24:36;-2.00;99.90
68485;DHT22;55472;50.060;21.960;2024-01-07T03:27:02;-2.00;99.90
68485;DHT22;55472;50.060;21.960;2024-01-07T03:29:29;-2.00;99.90
68485;DHT22;55472;50.060;21.960;2024-01-07T03:31:55;-2.00;99.90
68485;DHT22;55472;50.060;21.960;2024-01-07T03:34:21;-2.00;99.90
68485;DHT22;55472;50.060;21.960;2024-01-07T03:36:47;-2.10;99.90
68485;DHT22;55472;50.060;21.960;2024-01-07T03:39:13;-2.10;99.90
68485;DHT22;55472;50.060;21.960;2024-01-07T03:41:39;-2.10;99.90
68485;DHT22;55472;50.060;21.960;2024-01-07T03:44:05;-2.10;99.90
68485;DHT22;55472;50.060;21.960;2024-01-07T03:46:31;-2.10;99.90
68485;DHT22;55472;50.060;21.960;2024-01-07T03:48:57;-2.20;99.90
68485;DHT22;55472;50.060;21.960;2024-01-07T03:51:23;-2.10;99.90
68485;DHT22;55472;50.060;21.960;2024-01-07T03:53:50;-2.10;99.90
68485;DHT22;55472;50.060;21.960;2024-01-07T03:56:16;-2.20;99.90
68485;DHT22;55472;50.060;21.960;2024-01-07T03:58:42;-2.20;99.90
68485;DHT22;55472;50.060;21.960;2024-01-07T04:01:08;-2.20;99.90
68485;DHT22;55472;50.060;21.960;2024-01-07T04:03:34;-2.30;99.90
68485;DHT22;55472;50.060;21.960;2024-01-07T04:06:00;-2.30;99.90
68485;DHT22;55472;50.060;21.960;2024-01-07T04:08:27;-2.30;99.90
68485;DHT22;55472;50.060;21.960;2024-01-07T04:10:54;-2.30;99.90
68485;DHT22;55472;50.060;21.960;2024-01-07T04:13:20;-2.30;99.90
68485;DHT22;55472;50.060;21.960;2024-01-07T04:15:46;-2.40;99.90
68485;DHT22;55472;50.060;21.960;2024-01-07T04:18:12;-2.40;99.90
68485;DHT22;55472;50.060;21.960;2024-01-07T04:20:38;-2.40;99.90
68485;DHT22;55472;50.060;21.960;2024-01-07T04:23:04;-2.50;99.90
68485;DHT22;55472;50.060;21.960;2024-01-07T04:25:31;-2.50;99.90
68485;DHT22;55472;50.060;21.960;2024-01-07T04:27:57;-2.50;99.90
68485;DHT22;55472;50.060;21.960;2024-01-07T04:30:23;-2.50;99.90
68485;DHT22;55472;50.060;21.960;2024-01-07T04:32:50;-2.50;99.90
68485;DHT22;55472;50.060;21.960;2024-01-07T04:35:16;-2.50;99.90
68485;DHT22;55472;50.060;21.960;2024-01-07T04:37:42;-2.50;99.90
68485;DHT22;55472;50.060;21.960;2024-01-07T04:40:08;-2.50;99.90
68485;DHT22;55472;50.060;21.960;2024-01-07T04:42:35;-2.50;99.90
68485;DHT22;55472;50.060;21.960;2024-01-07T04:45:01;-2.60;99.90
68485;DHT22;55472;50.060;21.960;2024-01-07T04:47:32;-2.50;99.90
68485;DHT22;55472;50.060;21.960;2024-01-07T04:50:03;-2.60;99.90
68485;DHT22;55472;50.060;21.960;2024-01-07T04:52:29;-2.60;99.90
68485;DHT22;55472;50.060;21.960;2024-01-07T04:54:56;-2.60;99.90
68485;DHT22;55472;50.060;21.960;2024-01-07T04:57:22;-2.60;99.90
68485;DHT22;55472;50.060;21.960;2024-01-07T04:59:49;-2.60;99.90
68485;DHT22;55472;50.060;21.960;2024-01-07T05:02:16;-2.60;99.90
68485;DHT22;55472;50.060;21.960;2024-01-07T05:04:42;-2.70;99.90
68485;DHT22;55472;50.060;21.960;2024-01-07T05:07:09;-2.70;99.90
68485;DHT22;55472;50.060;21.960;2024-01-07T05:09:35;-2.70;99.90
68485;DHT22;55472;50.060;21.960;2024-01-07T05:12:01;-2.70;99.90
68485;DHT22;55472;50.060;21.960;2024-01-07T05:14:27;-2.80;99.90
68485;DHT22;55472;50.060;21.960;2024-01-07T05:16:54;-2.80;99.90
68485;DHT22;55472;50.060;21.960;2024-01-07T05:19:20;-2.80;99.90
68485;DHT22;55472;50.060;21.960;2024-01-07T05:21:46;-2.80;99.90
68485;DHT22;55472;50.060;21.960;2024-01-07T05:24:12;-2.90;99.90
68485;DHT22;55472;50.060;21.960;2024-01-07T05:26:42;-2.80;99.90
68485;DHT22;55472;50.060;21.960;2024-01-07T05:29:10;-2.80;99.90
68485;DHT22;55472;50.060;21.960;2024-01-07T05:31:41;-2.80;99.90
68485;DHT22;55472;50.060;21.960;2024-01-07T05:34:07;-2.80;99.90
68485;DHT22;55472;50.060;21.960;2024-01-07T05:36:34;-2.80;99.90
68485;DHT22;55472;50.060;21.960;2024-01-07T05:39:00;-2.80;99.90
68485;DHT22;55472;50.060;21.960;2024-01-07T05:41:26;-2.80;99.90
68485;DHT22;55472;50.060;21.960;2024-01-07T05:43:52;-2.80;99.90
68485;DHT22;55472;50.060;21.960;2024-01-07T05:46:18;-2.80;99.90
68485;DHT22;55472;50.060;21.960;2024-01-07T05:48:46;-2.90;99.90
68485;DHT22;55472;50.060;21.960;2024-01-07T05:51:14;-2.90;99.90
68485;DHT22;55472;50.060;21.960;2024-01-07T05:53:41;-2.90;99.90
68485;DHT22;55472;50.060;21.960;2024-01-07T05:56:08;-2.90;99.90
68485;DHT22;55472;50.060;21.960;2024-01-07T05:58:34;-2.90;99.90
68485;DHT22;55472;50.060;21.960;2024-01-07T06:01:00;-2.90;99.90
68485;DHT22;55472;50.060;21.960;2024-01-07T06:03:27;-2.90;99.90
68485;DHT22;55472;50.060;21.960;2024-01-07T06:05:53;-3.00;99.90
68485;DHT22;55472;50.060;21.960;2024-01-07T06:08:19;-3.00;99.90
68485;DHT22;55472;50.060;21.960;2024-01-07T06:10:45;-3.00;99.90
68485;DHT22;55472;50.060;21.960;2024-01-07T06:13:11;-3.00;99.90
68485;DHT22;55472;50.060;21.960;2024-01-07T06:15:37;-3.00;99.90
68485;DHT22;55472;50.060;21.960;2024-01-07T06:18:04;-3.00;99.90
68485;DHT22;55472;50.060;21.960;2024-01-07T06:20:30;-3.00;99.90
68485;DHT22;55472;50.060;21.960;2024-01-07T06:22:56;-3.10;99.90
68485;DHT22;55472;50.060;21.960;2024-01-07T06:25:22;-3.10;99.90
68485;DHT22;55472;50.060;21.960;2024-01-07T06:27:52;-3.10;99.90
68485;DHT22;55472;50.060;21.960;2024-01-07T06:30:18;-3.10;99.90
68485;DHT22;55472;50.060;21.960;2024-01-07T06:32:45;-3.10;99.90
68485;DHT22;55472;50.060;21.960;2024-01-07T06:35:11;-3.10;99.90
68485;DHT22;55472;50.060;21.960;2024-01-07T06:37:38;-3.10;99.90
68485;DHT22;55472;50.060;21.960;2024-01-07T06:40:04;-3.10;99.90
68485;DHT22;55472;50.060;21.960;2024-01-07T06:42:30;-3.20;99.90
68485;DHT22;55472;50.060;21.960;2024-01-07T06:44:57;-3.10;99.90
68485;DHT22;55472;50.060;21.960;2024-01-07T06:47:23;-3.10;99.90
68485;DHT22;55472;50.060;21.960;2024-01-07T06:49:49;-3.10;99.90
68485;DHT22;55472;50.060;21.960;2024-01-07T06:52:15;-3.10;99.90
68485;DHT22;55472;50.060;21.960;2024-01-07T06:54:41;-3.20;99.90
68485;DHT22;55472;50.060;21.960;2024-01-07T06:57:08;-3.20;99.90
68485;DHT22;55472;50.060;21.960;2024-01-07T06:59:33;-3.10;99.90
68485;DHT22;55472;50.060;21.960;2024-01-07T07:02:00;-3.20;99.90
68485;DHT22;55472;50.060;21.960;2024-01-07T07:04:26;-3.20;99.90
68485;DHT22;55472;50.060;21.960;2024-01-07T07:06:52;-3.20;99.90
68485;DHT22;55472;50.060;21.960;2024-01-07T07:09:19;-3.10;99.90
68485;DHT22;55472;50.060;21.960;2024-01-07T07:11:45;-3.10;99.90
68485;DHT22;55472;50.060;21.960;2024-01-07T07:14:11;-3.10;99.90
68485;DHT22;55472;50.060;21.960;2024-01-07T07:16:37;-3.10;99.90
68485;DHT22;55472;50.060;21.960;2024-01-07T07:19:03;-3.10;99.90
68485;DHT22;55472;50.060;21.960;2024-01-07T07:21:29;-3.10;99.90
68485;DHT22;55472;50.060;21.960;2024-01-07T07:23:55;-3.10;99.90
68485;DHT22;55472;50.060;21.960;2024-01-07T07:26:22;-3.10;99.90
68485;DHT22;55472;50.060;21.960;2024-01-07T07:28:48;-3.20;99.90
68485;DHT22;55472;50.060;21.960;2024-01-07T07:31:15;-3.20;99.90
68485;DHT22;55472;50.060;21.960;2024-01-07T07:33:41;-3.20;99.90
68485;DHT22;55472;50.060;21.960;2024-01-07T07:36:07;-3.20;99.90
68485;DHT22;55472;50.060;21.960;2024-01-07T07:38:33;-3.20;99.90
68485;DHT22;55472;50.060;21.960;2024-01-07T07:41:00;-3.20;99.90
68485;DHT22;55472;50.060;21.960;2024-01-07T07:43:26;-3.20;99.90
68485;DHT22;55472;50.060;21.960;2024-01-07T07:45:53;-3.20;99.90
68485;DHT22;55472;50.060;21.960;2024-01-07T07:48:19;-3.20;99.90
68485;DHT22;55472;50.060;21.960;2024-01-07T07:50:45;-3.20;99.90
68485;DHT22;55472;50.060;21.960;2024-01-07T07:53:12;-3.20;99.90
68485;DHT22;55472;50.060;21.960;2024-01-07T07:55:38;-3.20;99.90
68485;DHT22;55472;50.060;21.960;2024-01-07T07:58:04;-3.20;99.90
68485;DHT22;55472;50.060;21.960;2024-01-07T08:00:30;-3.20;99.90
68485;DHT22;55472;50.060;21.960;2024-01-07T08:02:56;-3.20;99.90
68485;DHT22;55472;50.060;21.960;2024-01-07T08:05:22;-3.20;99.90
68485;DHT22;55472;50.060;21.960;2024-01-07T08:07:48;-3.20;99.90
68485;DHT22;55472;50.060;21.960;2024-01-07T08:10:14;-3.20;99.90
68485;DHT22;55472;50.060;21.960;2024-01-07T08:12:41;-3.20;99.90
68485;DHT22;55472;50.060;21.960;2024-01-07T08:15:08;-3.10;99.90
68485;DHT22;55472;50.060;21.960;2024-01-07T08:17:34;-3.10;99.90
68485;DHT22;55472;50.060;21.960;2024-01-07T08:20:00;-3.10;99.90
68485;DHT22;55472;50.060;21.960;2024-01-07T08:22:27;-3.10;99.90
68485;DHT22;55472;50.060;21.960;2024-01-07T08:24:53;-3.10;99.90
68485;DHT22;55472;50.060;21.960;2024-01-07T08:27:20;-3.20;99.90
68485;DHT22;55472;50.060;21.960;2024-01-07T08:29:46;-3.10;99.90
68485;DHT22;55472;50.060;21.960;2024-01-07T08:32:12;-3.10;99.90
68485;DHT22;55472;50.060;21.960;2024-01-07T08:34:39;-3.10;99.90
68485;DHT22;55472;50.060;21.960;2024-01-07T08:37:07;-3.00;99.90
68485;DHT22;55472;50.060;21.960;2024-01-07T08:39:35;-3.10;99.90
68485;DHT22;55472;50.060;21.960;2024-01-07T08:42:01;-3.10;99.90
68485;DHT22;55472;50.060;21.960;2024-01-07T08:44:27;-3.10;99.90
68485;DHT22;55472;50.060;21.960;2024-01-07T08:46:53;-3.00;99.90
68485;DHT22;55472;50.060;21.960;2024-01-07T08:49:19;-3.00;99.90
68485;DHT22;55472;50.060;21.960;2024-01-07T08:51:45;-2.90;99.90
68485;DHT22;55472;50.060;21.960;2024-01-07T08:54:12;-2.90;99.90
68485;DHT22;55472;50.060;21.960;2024-01-07T08:56:38;-2.90;99.90
68485;DHT22;55472;50.060;21.960;2024-01-07T08:59:05;-2.90;99.90
68485;DHT22;55472;50.060;21.960;2024-01-07T09:01:31;-2.90;99.90
68485;DHT22;55472;50.060;21.960;2024-01-07T09:03:57;-2.90;99.90
68485;DHT22;55472;50.060;21.960;2024-01-07T09:06:23;-2.80;99.90
68485;DHT22;55472;50.060;21.960;2024-01-07T09:08:50;-2.90;99.90
68485;DHT22;55472;50.060;21.960;2024-01-07T09:11:19;-2.80;99.90
68485;DHT22;55472;50.060;21.960;2024-01-07T09:13:45;-2.80;99.90
68485;DHT22;55472;50.060;21.960;2024-01-07T09:16:14;-2.80;99.90
68485;DHT22;55472;50.060;21.960;2024-01-07T09:18:41;-2.80;99.90
68485;DHT22;55472;50.060;21.960;2024-01-07T09:21:09;-2.80;99.90
68485;DHT22;55472;50.060;21.960;2024-01-07T09:23:36;-2.80;99.90
68485;DHT22;55472;50.060;21.960;2024-01-07T09:26:02;-2.80;99.90
68485;DHT22;55472;50.060;21.960;2024-01-07T09:28:28;-2.80;99.90
68485;DHT22;55472;50.060;21.960;2024-01-07T09:30:54;-2.80;99.90
68485;DHT22;55472;50.060;21.960;2024-01-07T09:33:20;-2.90;99.90
68485;DHT22;55472;50.060;21.960;2024-01-07T09:35:50;-2.90;99.90
68485;DHT22;55472;50.060;21.960;2024-01-07T09:38:16;-2.90;99.90
68485;DHT22;55472;50.060;21.960;2024-01-07T09:40:42;-2.90;99.90
68485;DHT22;55472;50.060;21.960;2024-01-07T09:43:09;-2.90;99.90
68485;DHT22;55472;50.060;21.960;2024-01-07T09:45:42;-2.90;99.90
68485;DHT22;55472;50.060;21.960;2024-01-07T09:48:12;-2.90;99.90
68485;DHT22;55472;50.060;21.960;2024-01-07T09:50:38;-2.80;99.90
68485;DHT22;55472;50.060;21.960;2024-01-07T09:53:04;-2.80;99.90
68485;DHT22;55472;50.060;21.960;2024-01-07T09:55:43;-2.80;99.90
68485;DHT22;55472;50.060;21.960;2024-01-07T09:58:19;-2.80;99.90
68485;DHT22;55472;50.060;21.960;2024-01-07T10:00:45;-2.80;99.90
68485;DHT22;55472;50.060;21.960;2024-01-07T10:03:11;-2.80;99.90
68485;DHT22;55472;50.060;21.960;2024-01-07T10:05:37;-2.90;99.90
68485;DHT22;55472;50.060;21.960;2024-01-07T10:08:04;-2.90;99.90
68485;DHT22;55472;50.060;21.960;2024-01-07T10:10:31;-2.90;99.90
68485;DHT22;55472;50.060;21.960;2024-01-07T10:12:57;-2.90;99.90
68485;DHT22;55472;50.060;21.960;2024-01-07T10:15:23;-2.90;99.90
68485;DHT22;55472;50.060;21.960;2024-01-07T10:17:54;-2.90;99.90
68485;DHT22;55472;50.060;21.960;2024-01-07T10:20:21;-2.90;99.90
68485;DHT22;55472;50.060;21.960;2024-01-07T10:22:50;-2.80;99.90
68485;DHT22;55472;50.060;21.960;2024-01-07T10:25:16;-2.80;99.90
68485;DHT22;55472;50.060;21.960;2024-01-07T10:27:42;-2.80;99.90
68485;DHT22;55472;50.060;21.960;2024-01-07T10:30:09;-2.80;99.90
68485;DHT22;55472;50.060;21.960;2024-01-07T10:32:36;-2.70;99.90
68485;DHT22;55472;50.060;21.960;2024-01-07T10:35:03;-2.80;99.90
68485;DHT22;55472;50.060;21.960;2024-01-07T10:37:33;-2.70;99.90
68485;DHT22;55472;50.060;21.960;2024-01-07T10:40:00;-2.70;99.90
68485;DHT22;55472;50.060;21.960;2024-01-07T10:42:33;-2.70;99.90
68485;DHT22;55472;50.060;21.960;2024-01-07T10:45:02;-2.70;99.90
68485;DHT22;55472;50.060;21.960;2024-01-07T10:47:30;-2.70;99.90
68485;DHT22;55472;50.060;21.960;2024-01-07T10:49:58;-2.70;99.90
68485;DHT22;55472;50.060;21.960;2024-01-07T10:52:28;-2.70;99.90
68485;DHT22;55472;50.060;21.960;2024-01-07T10:54:57;-2.70;99.90
68485;DHT22;55472;50.060;21.960;2024-01-07T10:57:36;-2.80;99.90
68485;DHT22;55472;50.060;21.960;2024-01-07T11:00:07;-2.80;99.90
68485;DHT22;55472;50.060;21.960;2024-01-07T11:02:46;-2.80;99.90
68485;DHT22;55472;50.060;21.960;2024-01-07T11:05:43;-2.90;99.90
68485;DHT22;55472;50.060;21.960;2024-01-07T11:09:06;-2.90;99.90
68485;DHT22;55472;50.060;21.960;2024-01-07T11:11:17;-2.90;99.90
68485;DHT22;55472;50.060;21.960;2024-01-07T11:13:47;-2.90;99.90
68485;DHT22;55472;50.060;21.960;2024-01-07T11:16:13;-2.90;99.90
68485;DHT22;55472;50.060;21.960;2024-01-07T11:18:59;-2.90;99.90
68485;DHT22;55472;50.060;21.960;2024-01-07T11:21:27;-2.90;99.90
68485;DHT22;55472;50.060;21.960;2024-01-07T11:23:53;-3.00;99.90
68485;DHT22;55472;50.060;21.960;2024-01-07T11:26:22;-2.90;99.90
68485;DHT22;55472;50.060;21.960;2024-01-07T11:28:54;-3.00;99.90
68485;DHT22;55472;50.060;21.960;2024-01-07T11:34:05;-3.00;99.90
68485;DHT22;55472;50.060;21.960;2024-01-07T11:36:35;-3.00;99.90
68485;DHT22;55472;50.060;21.960;2024-01-07T11:39:03;-3.00;99.90
68485;DHT22;55472;50.060;21.960;2024-01-07T11:41:33;-3.00;99.90
68485;DHT22;55472;50.060;21.960;2024-01-07T11:44:00;-3.00;99.90
68485;DHT22;55472;50.060;21.960;2024-01-07T11:46:29;-3.10;99.90
68485;DHT22;55472;50.060;21.960;2024-01-07T11:48:57;-3.00;99.90
68485;DHT22;55472;50.060;21.960;2024-01-07T11:51:27;-3.10;99.90
68485;DHT22;55472;50.060;21.960;2024-01-07T11:53:57;-3.10;99.90
68485;DHT22;55472;50.060;21.960;2024-01-07T11:56:27;-3.10;99.90
68485;DHT22;55472;50.060;21.960;2024-01-07T11:58:54;-3.10;99.90
68485;DHT22;55472;50.060;21.960;2024-01-07T12:01:25;-3.10;99.90
68485;DHT22;55472;50.060;21.960;2024-01-07T12:03:54;-3.20;99.90
68485;DHT22;55472;50.060;21.960;2024-01-07T12:06:20;-3.20;99.90
68485;DHT22;55472;50.060;21.960;2024-01-07T12:08:46;-3.20;99.90
68485;DHT22;55472;50.060;21.960;2024-01-07T12:11:13;-3.30;99.90
68485;DHT22;55472;50.060;21.960;2024-01-07T12:13:41;-3.30;99.90
68485;DHT22;55472;50.060;21.960;2024-01-07T12:16:08;-3.30;99.90
68485;DHT22;55472;50.060;21.960;2024-01-07T12:18:37;-3.30;99.90
68485;DHT22;55472;50.060;21.960;2024-01-07T12:21:03;-3.40;99.90
68485;DHT22;55472;50.060;21.960;2024-01-07T12:23:36;-3.50;99.90
68485;DHT22;55472;50.060;21.960;2024-01-07T12:26:10;-3.50;99.90
68485;DHT22;55472;50.060;21.960;2024-01-07T12:28:38;-3.50;99.90
68485;DHT22;55472;50.060;21.960;2024-01-07T12:31:05;-3.50;99.90
68485;DHT22;55472;50.060;21.960;2024-01-07T12:33:32;-3.50;99.90
68485;DHT22;55472;50.060;21.960;2024-01-07T12:35:59;-3.50;99.90
68485;DHT22;55472;50.060;21.960;2024-01-07T12:38:29;-3.50;99.90
68485;DHT22;55472;50.060;21.960;2024-01-07T12:40:56;-3.50;99.90
68485;DHT22;55472;50.060;21.960;2024-01-07T12:43:22;-3.50;99.90
68485;DHT22;55472;50.060;21.960;2024-01-07T12:45:48;-3.40;99.90
68485;DHT22;55472;50.060;21.960;2024-01-07T12:48:15;-3.40;99.90
68485;DHT22;55472;50.060;21.960;2024-01-07T12:50:41;-3.50;99.90
68485;DHT22;55472;50.060;21.960;2024-01-07T12:53:10;-3.50;99.90
68485;DHT22;55472;50.060;21.960;2024-01-07T12:55:36;-3.50;99.90
68485;DHT22;55472;50.060;21.960;2024-01-07T12:58:02;-3.50;99.90
68485;DHT22;55472;50.060;21.960;2024-01-07T13:00:28;-3.50;99.90
68485;DHT22;55472;50.060;21.960;2024-01-07T13:02:55;-3.50;99.90
68485;DHT22;55472;50.060;21.960;2024-01-07T13:05:21;-3.60;99.90
68485;DHT22;55472;50.060;21.960;2024-01-07T13:07:47;-3.60;99.90
68485;DHT22;55472;50.060;21.960;2024-01-07T13:10:13;-3.70;99.90
68485;DHT22;55472;50.060;21.960;2024-01-07T13:12:40;-3.70;99.90
68485;DHT22;55472;50.060;21.960;2024-01-07T13:15:07;-3.80;99.90
68485;DHT22;55472;50.060;21.960;2024-01-07T13:17:33;-3.80;99.90
68485;DHT22;55472;50.060;21.960;2024-01-07T13:19:59;-3.90;99.90
68485;DHT22;55472;50.060;21.960;2024-01-07T13:22:26;-3.90;99.90
68485;DHT22;55472;50.060;21.960;2024-01-07T13:24:52;-3.90;99.90
68485;DHT22;55472;50.060;21.960;2024-01-07T13:27:20;-4.00;99.90
68485;DHT22;55472;50.060;21.960;2024-01-07T13:29:48;-4.00;99.90
68485;DHT22;55472;50.060;21.960;2024-01-07T13:32:14;-4.00;99.90
68485;DHT22;55472;50.060;21.960;2024-01-07T13:34:47;-4.00;99.90
68485;DHT22;55472;50.060;21.960;2024-01-07T13:37:13;-4.00;99.90
68485;DHT22;55472;50.060;21.960;2024-01-07T13:39:40;-4.10;99.90
68485;DHT22;55472;50.060;21.960;2024-01-07T13:42:06;-4.10;99.90
68485;DHT22;55472;50.060;21.960;2024-01-07T13:44:32;-4.00;99.90
68485;DHT22;55472;50.060;21.960;2024-01-07T13:47:00;-4.00;99.90
68485;DHT22;55472;50.060;21.960;2024-01-07T13:49:31;-4.10;99.90
68485;DHT22;55472;50.060;21.960;2024-01-07T13:51:58;-4.10;99.90
68485;DHT22;55472;50.060;21.960;2024-01-07T13:54:27;-4.10;99.90
68485;DHT22;55472;50.060;21.960;2024-01-07T13:56:53;-4.20;99.90
68485;DHT22;55472;50.060;21.960;2024-01-07T13:59:20;-4.20;99.90
68485;DHT22;55472;50.060;21.960;2024-01-07T14:01:46;-4.20;99.90
68485;DHT22;55472;50.060;21.960;2024-01-07T14:04:12;-4.30;99.90
68485;DHT22;55472;50.060;21.960;2024-01-07T14:06:39;-4.40;99.90
68485;DHT22;55472;50.060;21.960;2024-01-07T14:09:06;-4.40;99.90
68485;DHT22;55472;50.060;21.960;2024-01-07T14:11:34;-4.40;99.90
68485;DHT22;55472;50.060;21.960;2024-01-07T14:14:01;-4.40;99.90
68485;DHT22;55472;50.060;21.960;2024-01-07T14:16:28;-4.40;99.90
68485;DHT22;55472;50.060;21.960;2024-01-07T14:18:54;-4.40;99.90
68485;DHT22;55472;50.060;21.960;2024-01-07T14:21:20;-4.50;99.90
68485;DHT22;55472;50.060;21.960;2024-01-07T14:23:47;-4.50;99.90
68485;DHT22;55472;50.060;21.960;2024-01-07T14:26:13;-4.60;99.90
68485;DHT22;55472;50.060;21.960;2024-01-07T14:28:40;-4.60;99.90
68485;DHT22;55472;50.060;21.960;2024-01-07T14:31:06;-4.60;99.90
68485;DHT22;55472;50.060;21.960;2024-01-07T14:33:33;-4.70;99.90
68485;DHT22;55472;50.060;21.960;2024-01-07T14:35:59;-4.70;99.90
68485;DHT22;55472;50.060;21.960;2024-01-07T14:38:28;-4.70;99.90
68485;DHT22;55472;50.060;21.960;2024-01-07T14:40:54;-4.80;99.90
68485;DHT22;55472;50.060;21.960;2024-01-07T14:43:22;-4.80;99.90
68485;DHT22;55472;50.060;21.960;2024-01-07T14:45:48;-4.80;99.90
68485;DHT22;55472;50.060;21.960;2024-01-07T14:48:14;-4.80;99.90
68485;DHT22;55472;50.060;21.960;2024-01-07T14:50:40;-4.80;99.90
68485;DHT22;55472;50.060;21.960;2024-01-07T14:53:07;-4.90;99.90
68485;DHT22;55472;50.060;21.960;2024-01-07T14:55:33;-5.00;99.90
68485;DHT22;55472;50.060;21.960;2024-01-07T14:57:59;-5.00;99.90
68485;DHT22;55472;50.060;21.960;2024-01-07T15:00:25;-5.10;99.90
68485;DHT22;55472;50.060;21.960;2024-01-07T15:02:52;-5.10;99.90
68485;DHT22;55472;50.060;21.960;2024-01-07T15:05:18;-5.10;99.90
68485;DHT22;55472;50.060;21.960;2024-01-07T15:07:45;-5.10;99.90
68485;DHT22;55472;50.060;21.960;2024-01-07T15:10:15;-5.20;99.90
68485;DHT22;55472;50.060;21.960;2024-01-07T15:12:43;-5.20;99.90
68485;DHT22;55472;50.060;21.960;2024-01-07T15:15:12;-5.20;99.90
68485;DHT22;55472;50.060;21.960;2024-01-07T15:17:39;-5.20;99.90